Terminal Aerodrome Forecast
Issued by NWS

Home | Current Version | Previous Version | Text Only | Print | Product List | Glossary On
Versions: 1 2 3 4 5 6 7 8 9 10 11 12 13 14 15 16 17 18 19 20 21
000
FTUS43 KGRB 282330
TAFRHI
TAF
KRHI 282330Z 2900/2924 18003KT P6SM SKC
     FM290800 17003KT 3SM BR SCT090
      TEMPO 2909/2913 1SM BR BKN002
     FM291300 19003KT 4SM BR BKN008
     FM291700 19008KT P6SM -SHRA BKN020
     FM291900 19008KT P6SM SCT025=

USA.gov is the U.S. government's official web portal to all federal, state and local government web resources and services.